Time;durP1;ratioP1;P1;durP2;ratioP2;P2;SDS_P1;SDS_P2;PMS_P1;PMS_P2;Temp;Humidity;BMP_temperature;BMP_pressure;BME280_temperature;BME280_humidity;BME280_pressure;Samples;Min_cycle;Max_cycle;Signal;HPM_P1;HPM_P2
2022/10/17 00:02:15;;;;;;;1999.90;999.90;;;18.30;99.90;;;;;;4963929;28;216638;-78
2022/10/17 00:04:41;;;;;;;1999.90;999.90;;;18.30;99.90;;;;;;4971094;28;20023;-82
2022/10/17 00:07:06;;;;;;;1999.90;999.90;;;18.40;99.90;;;;;;4971436;28;20035;-79
2022/10/17 00:09:32;;;;;;;1999.90;999.90;;;18.50;99.90;;;;;;4972394;28;20045;-79
2022/10/17 00:11:58;;;;;;;1999.90;999.90;;;18.50;99.90;;;;;;4972222;28;20085;-82
2022/10/17 00:14:23;;;;;;;1999.90;999.90;;;18.60;99.90;;;;;;4976053;28;20390;-82
2022/10/17 00:16:49;;;;;;;1999.90;999.90;;;18.70;99.90;;;;;;4976471;28;20046;-82
2022/10/17 00:19:15;;;;;;;1999.90;999.90;;;18.70;99.90;;;;;;4973673;28;20636;-82
2022/10/17 00:21:40;;;;;;;1999.90;999.90;;;18.80;99.90;;;;;;4971852;28;20110;-82
2022/10/17 00:24:06;;;;;;;1999.90;999.90;;;19.00;99.90;;;;;;4972245;28;20026;-82
2022/10/17 00:26:32;;;;;;;1999.90;999.90;;;19.20;99.90;;;;;;4972166;28;20062;-83
2022/10/17 00:28:57;;;;;;;1999.90;999.90;;;19.30;99.90;;;;;;4972428;28;20471;-84
2022/10/17 00:31:23;;;;;;;1999.90;999.90;;;19.30;99.90;;;;;;4972402;28;20073;-82
2022/10/17 00:33:50;;;;;;;1999.90;999.90;;;19.30;99.90;;;;;;4972242;28;20026;-80
2022/10/17 00:36:20;;;;;;;1999.90;999.90;;;19.20;99.90;;;;;;4972227;28;20119;-79
2022/10/17 00:38:48;;;;;;;1999.90;999.90;;;19.10;99.90;;;;;;4971924;28;20715;-85
2022/10/17 00:41:17;;;;;;;1999.90;999.90;;;19.10;99.90;;;;;;4971503;28;20023;-83
2022/10/17 00:43:58;;;;;;;1999.90;999.90;;;19.00;99.90;;;;;;4972457;28;20371;-84
2022/10/17 00:46:29;;;;;;;1999.90;999.90;;;18.90;99.90;;;;;;4972792;28;20565;-83
2022/10/17 00:48:57;;;;;;;1999.90;999.90;;;18.90;99.90;;;;;;4971437;28;20385;-79
2022/10/17 00:51:32;;;;;;;1999.90;999.90;;;19.00;99.90;;;;;;4971347;28;20398;-83
2022/10/17 00:53:59;;;;;;;1999.90;999.90;;;19.00;99.90;;;;;;4971825;28;20025;-87
2022/10/17 00:56:25;;;;;;;1999.90;999.90;;;19.00;99.90;;;;;;4972149;28;20019;-88
2022/10/17 00:58:51;;;;;;;1999.90;999.90;;;18.90;99.90;;;;;;4974854;28;20046;-88
2022/10/17 01:01:17;;;;;;;1999.90;999.90;;;18.90;99.90;;;;;;4976124;28;20034;-79
2022/10/17 01:03:42;;;;;;;1999.90;999.90;;;18.90;99.90;;;;;;4971490;28;20058;-81
2022/10/17 01:06:08;;;;;;;1999.90;999.90;;;18.90;99.90;;;;;;4971766;28;20019;-82
2022/10/17 01:08:34;;;;;;;1999.90;999.90;;;18.90;99.90;;;;;;4988975;28;20042;-83
2022/10/17 01:11:27;;;;;;;1999.90;999.90;;;18.90;99.90;;;;;;4995035;28;20022;-84
2022/10/17 01:13:59;;;;;;;1999.90;999.90;;;18.90;99.90;;;;;;4971907;28;20355;-83
2022/10/17 01:16:39;;;;;;;1999.90;999.90;;;18.80;99.90;;;;;;4954406;28;20546;-84
2022/10/17 01:19:49;;;;;;;1999.90;999.90;;;18.80;99.90;;;;;;4971314;28;20069;-84
2022/10/17 01:22:26;;;;;;;1999.90;999.90;;;18.70;99.90;;;;;;4971614;28;20035;-84
2022/10/17 01:25:10;;;;;;;1999.90;999.90;;;18.80;99.90;;;;;;4972897;28;20031;-83
2022/10/17 01:27:59;;;;;;;1999.90;999.90;;;18.80;99.90;;;;;;4970337;28;20026;-83
2022/10/17 01:30:43;;;;;;;1999.90;999.90;;;18.80;99.90;;;;;;4970482;28;20031;-81
2022/10/17 01:33:19;;;;;;;1999.90;999.90;;;18.80;99.90;;;;;;4970170;28;20030;-80
2022/10/17 01:36:08;;;;;;;1999.90;999.90;;;18.80;99.90;;;;;;4970295;28;20037;-80
2022/10/17 01:38:50;;;;;;;1999.90;999.90;;;18.70;99.90;;;;;;4969698;28;20027;-83
2022/10/17 01:41:16;;;;;;;1999.90;999.90;;;18.70;99.90;;;;;;4969819;28;20026;-81
2022/10/17 01:43:54;;;;;;;1999.90;999.90;;;18.70;99.90;;;;;;4971124;28;20029;-81
2022/10/17 01:46:23;;;;;;;1999.90;999.90;;;18.70;99.90;;;;;;4970064;28;20023;-79
2022/10/17 01:48:49;;;;;;;1999.90;999.90;;;18.60;99.90;;;;;;4970359;28;20743;-78
2022/10/17 01:51:23;;;;;;;1999.90;999.90;;;18.60;99.90;;;;;;4970232;28;20063;-78
2022/10/17 01:53:55;;;;;;;1999.90;999.90;;;18.60;99.90;;;;;;4971028;28;20027;-80
2022/10/17 01:56:24;;;;;;;1999.90;999.90;;;18.50;99.90;;;;;;4974293;28;20023;-79
2022/10/17 01:59:00;;;;;;;1999.90;999.90;;;18.50;99.90;;;;;;4974956;28;20070;-79
2022/10/17 02:01:29;;;;;;;1999.90;999.90;;;18.40;99.90;;;;;;4970105;28;20031;-79
2022/10/17 02:03:56;;;;;;;1999.90;999.90;;;18.40;99.90;;;;;;4970647;28;20506;-80
2022/10/17 02:06:22;;;;;;;1999.90;999.90;;;18.30;99.90;;;;;;4969519;28;20023;-80
2022/10/17 02:08:50;;;;;;;1999.90;999.90;;;18.30;99.90;;;;;;4969912;28;20026;-80
2022/10/17 02:11:24;;;;;;;1999.90;999.90;;;18.20;99.90;;;;;;4973526;28;20406;-80
2022/10/17 02:14:09;;;;;;;1999.90;999.90;;;18.20;99.90;;;;;;4974690;28;20393;-81
2022/10/17 02:16:40;;;;;;;1999.90;999.90;;;18.20;99.90;;;;;;4969882;28;20069;-81
2022/10/17 02:19:33;;;;;;;1999.90;999.90;;;18.20;99.90;;;;;;4972320;28;20510;-81
2022/10/17 02:22:07;;;;;;;1999.90;999.90;;;18.20;99.90;;;;;;4955170;28;20571;-81
2022/10/17 02:24:58;;;;;;;1999.90;999.90;;;18.10;99.90;;;;;;4968408;28;20033;-81
2022/10/17 02:27:42;;;;;;;1999.90;999.90;;;18.10;99.90;;;;;;4970078;28;20025;-80
2022/10/17 02:30:22;;;;;;;1999.90;999.90;;;18.10;99.90;;;;;;4953654;28;20527;-82
2022/10/17 02:33:15;;;;;;;1999.90;999.90;;;18.00;99.90;;;;;;4956792;28;20023;-81
2022/10/17 02:35:46;;;;;;;1999.90;999.90;;;18.00;99.90;;;;;;4972149;28;20086;-81
2022/10/17 02:38:13;;;;;;;1999.90;999.90;;;18.00;99.90;;;;;;4969943;28;20182;-81
2022/10/17 02:40:41;;;;;;;1999.90;999.90;;;18.00;99.90;;;;;;4968657;28;20027;-81
2022/10/17 02:43:07;;;;;;;1999.90;999.90;;;18.10;99.90;;;;;;4968404;28;20490;-81
2022/10/17 02:45:35;;;;;;;1999.90;999.90;;;18.10;99.90;;;;;;4969962;28;20019;-80
2022/10/17 02:48:03;;;;;;;1999.90;999.90;;;18.10;99.90;;;;;;4967594;28;20076;-80
2022/10/17 02:50:44;;;;;;;1999.90;999.90;;;18.10;99.90;;;;;;4968518;28;20034;-82
2022/10/17 02:53:18;;;;;;;1999.90;999.90;;;18.10;99.90;;;;;;4968452;28;20042;-81
2022/10/17 02:55:52;;;;;;;1999.90;999.90;;;18.10;99.90;;;;;;4968096;28;20054;-80
2022/10/17 02:58:25;;;;;;;1999.90;999.90;;;18.10;99.90;;;;;;4969674;28;20462;-81
2022/10/17 03:00:52;;;;;;;1999.90;999.90;;;18.00;99.90;;;;;;4967833;28;20446;-81
2022/10/17 03:03:22;;;;;;;1999.90;999.90;;;18.00;99.90;;;;;;4968722;28;20395;-80
2022/10/17 03:05:48;;;;;;;1999.90;999.90;;;18.00;99.90;;;;;;4969274;28;20046;-80
2022/10/17 03:08:14;;;;;;;1999.90;999.90;;;18.00;99.90;;;;;;4970123;28;20062;-80
2022/10/17 03:10:40;;;;;;;1999.90;999.90;;;17.90;99.90;;;;;;4972842;28;20042;-81
2022/10/17 03:13:05;;;;;;;1999.90;999.90;;;17.90;99.90;;;;;;4973562;28;20026;-80
2022/10/17 03:15:31;;;;;;;1999.90;999.90;;;17.90;99.90;;;;;;4972762;28;20034;-80
2022/10/17 03:17:56;;;;;;;1999.90;999.90;;;17.90;99.90;;;;;;4973970;28;20058;-81
2022/10/17 03:20:22;;;;;;;1999.90;999.90;;;17.90;99.90;;;;;;4969372;28;20022;-80
2022/10/17 03:22:48;;;;;;;1999.90;999.90;;;17.80;99.90;;;;;;4969588;28;20532;-79
2022/10/17 03:25:13;;;;;;;1999.90;999.90;;;17.80;99.90;;;;;;4970110;28;20022;-81
2022/10/17 03:27:39;;;;;;;1999.90;999.90;;;17.80;99.90;;;;;;4971441;28;20034;-79
2022/10/17 03:30:05;;;;;;;1999.90;999.90;;;17.80;99.90;;;;;;4973646;28;20031;-79
2022/10/17 03:32:33;;;;;;;1999.90;999.90;;;17.80;99.90;;;;;;4971375;28;20027;-79
2022/10/17 03:34:58;;;;;;;1999.90;999.90;;;17.80;99.90;;;;;;4968620;28;20023;-80
2022/10/17 03:37:24;;;;;;;1999.90;999.90;;;17.80;99.90;;;;;;4968794;28;20037;-82
2022/10/17 03:39:50;;;;;;;1999.90;999.90;;;17.80;99.90;;;;;;4968234;28;20109;-82
2022/10/17 03:42:15;;;;;;;1999.90;999.90;;;17.80;99.90;;;;;;4969367;28;20019;-82
2022/10/17 03:44:41;;;;;;;1999.90;999.90;;;17.80;99.90;;;;;;4968837;28;20498;-82
2022/10/17 03:47:07;;;;;;;1999.90;999.90;;;17.90;99.90;;;;;;4969203;28;20049;-83
2022/10/17 03:49:32;;;;;;;1999.90;999.90;;;17.80;99.90;;;;;;4967104;28;20030;-79
2022/10/17 03:51:58;;;;;;;1999.90;999.90;;;17.80;99.90;;;;;;4968925;28;20499;-83
2022/10/17 03:54:24;;;;;;;1999.90;999.90;;;17.90;99.90;;;;;;4967613;28;20027;-82
2022/10/17 03:56:49;;;;;;;1999.90;999.90;;;17.90;99.90;;;;;;4970047;28;20027;-82
2022/10/17 03:59:15;;;;;;;1999.90;999.90;;;17.90;99.90;;;;;;4973079;28;20446;-82
2022/10/17 04:01:41;;;;;;;1999.90;999.90;;;17.90;99.90;;;;;;4971835;28;20019;-81
2022/10/17 04:04:07;;;;;;;1999.90;999.90;;;17.90;99.90;;;;;;4969205;28;20035;-79
2022/10/17 04:06:33;;;;;;;1999.90;999.90;;;17.80;99.90;;;;;;4968782;28;20117;-82
2022/10/17 04:08:59;;;;;;;1999.90;999.90;;;17.80;99.90;;;;;;4968409;28;20105;-81
2022/10/17 04:11:24;;;;;;;1999.90;999.90;;;17.80;99.90;;;;;;4966921;28;20390;-82
2022/10/17 04:13:55;;;;;;;1999.90;999.90;;;17.70;99.90;;;;;;4968533;28;20386;-81
2022/10/17 04:16:21;;;;;;;1999.90;999.90;;;17.70;99.90;;;;;;4968653;28;20026;-80
2022/10/17 04:18:51;;;;;;;1999.90;999.90;;;17.70;99.90;;;;;;4966918;28;20027;-80
2022/10/17 04:21:17;;;;;;;1999.90;999.90;;;17.60;99.90;;;;;;4968037;28;20034;-81
2022/10/17 04:23:43;;;;;;;1999.90;999.90;;;17.50;99.90;;;;;;4969945;28;20034;-82
2022/10/17 04:26:08;;;;;;;1999.90;999.90;;;17.50;99.90;;;;;;4972149;28;20023;-80
2022/10/17 04:28:35;;;;;;;1999.90;999.90;;;17.50;99.90;;;;;;4972174;28;20463;-81
2022/10/17 04:31:03;;;;;;;1999.90;999.90;;;17.50;99.90;;;;;;4971095;28;21212;-81
2022/10/17 04:33:30;;;;;;;1999.90;999.90;;;17.40;99.90;;;;;;4972150;28;20521;-81
2022/10/17 04:36:04;;;;;;;1999.90;999.90;;;17.50;99.90;;;;;;4954745;28;20027;-81
2022/10/17 04:38:30;;;;;;;1999.90;999.90;;;17.50;99.90;;;;;;4970904;28;20027;-80
2022/10/17 04:41:03;;;;;;;1999.90;999.90;;;17.50;99.90;;;;;;4971583;28;20027;-81
2022/10/17 04:43:30;;;;;;;1999.90;999.90;;;17.50;99.90;;;;;;4971717;28;20102;-80
2022/10/17 04:45:57;;;;;;;1999.90;999.90;;;17.50;99.90;;;;;;4971562;28;20058;-82
2022/10/17 04:48:22;;;;;;;1999.90;999.90;;;17.50;99.90;;;;;;4971625;28;20019;-81
2022/10/17 04:50:56;;;;;;;1999.90;999.90;;;17.40;99.90;;;;;;4971200;28;20035;-80
2022/10/17 04:53:22;;;;;;;1999.90;999.90;;;17.40;99.90;;;;;;4971494;28;20035;-81
2022/10/17 04:55:48;;;;;;;1999.90;999.90;;;17.30;99.90;;;;;;4971340;28;20528;-80
2022/10/17 04:58:14;;;;;;;1999.90;999.90;;;17.30;99.90;;;;;;4970664;28;20125;-82
2022/10/17 05:00:40;;;;;;;1999.90;999.90;;;17.30;99.90;;;;;;4971368;28;20494;-80
2022/10/17 05:03:06;;;;;;;1999.90;999.90;;;17.20;99.90;;;;;;4970441;28;20092;-81
2022/10/17 05:05:31;;;;;;;1999.90;999.90;;;17.20;99.90;;;;;;4970683;28;20058;-80
2022/10/17 05:07:57;;;;;;;1999.90;999.90;;;17.20;99.90;;;;;;4971498;28;20059;-81
2022/10/17 05:10:23;;;;;;;1999.90;999.90;;;17.20;99.90;;;;;;4971325;28;20031;-80
2022/10/17 05:12:49;;;;;;;1999.90;999.90;;;17.20;99.90;;;;;;4970412;28;20035;-81
2022/10/17 05:15:15;;;;;;;1999.90;999.90;;;17.20;99.90;;;;;;4973351;28;20077;-82
2022/10/17 05:17:41;;;;;;;1999.90;999.90;;;17.30;99.90;;;;;;4974480;28;20030;-82
2022/10/17 05:20:08;;;;;;;1999.90;999.90;;;17.30;99.90;;;;;;4973651;28;20488;-80
2022/10/17 05:22:33;;;;;;;1999.90;999.90;;;17.30;99.90;;;;;;4974308;28;20390;-82
2022/10/17 05:24:59;;;;;;;1999.90;999.90;;;17.40;99.90;;;;;;4975104;28;20023;-82
2022/10/17 05:27:25;;;;;;;1999.90;999.90;;;17.40;99.90;;;;;;4971165;28;20023;-81
2022/10/17 05:29:51;;;;;;;1999.90;999.90;;;17.40;99.90;;;;;;4953865;28;20557;-80
2022/10/17 05:32:16;;;;;;;1999.90;999.90;;;17.40;99.90;;;;;;4969736;28;20026;-81
2022/10/17 05:34:42;;;;;;;1999.90;999.90;;;17.30;99.90;;;;;;4968868;28;20027;-81
2022/10/17 05:37:10;;;;;;;1999.90;999.90;;;17.30;99.90;;;;;;4969655;28;20043;-81
2022/10/17 05:39:36;;;;;;;1999.90;999.90;;;17.30;99.90;;;;;;4970247;28;20034;-82
2022/10/17 05:42:02;;;;;;;1999.90;999.90;;;17.20;99.90;;;;;;4969427;28;20081;-80
2022/10/17 05:44:27;;;;;;;1999.90;999.90;;;17.20;99.90;;;;;;4968924;28;20034;-81
2022/10/17 05:46:53;;;;;;;1999.90;999.90;;;17.30;99.90;;;;;;4970331;28;20033;-81
2022/10/17 05:49:18;;;;;;;1999.90;999.90;;;17.30;99.90;;;;;;4968641;28;20035;-81
2022/10/17 05:51:44;;;;;;;1999.90;999.90;;;17.30;99.90;;;;;;4969252;28;20063;-81
2022/10/17 05:54:10;;;;;;;1999.90;999.90;;;17.20;99.90;;;;;;4969416;28;20394;-80
2022/10/17 05:56:35;;;;;;;1999.90;999.90;;;17.30;99.90;;;;;;4968855;28;20481;-81
2022/10/17 05:59:01;;;;;;;1999.90;999.90;;;17.30;99.90;;;;;;4968473;28;20037;-80
2022/10/17 06:01:27;;;;;;;1999.90;999.90;;;17.30;99.90;;;;;;4969222;28;20398;-81
2022/10/17 06:03:52;;;;;;;1999.90;999.90;;;17.30;99.90;;;;;;4970183;28;21088;-81
2022/10/17 06:06:19;;;;;;;1999.90;999.90;;;17.30;99.90;;;;;;4967182;28;20146;-81
2022/10/17 06:08:44;;;;;;;1999.90;999.90;;;17.20;99.90;;;;;;4974793;28;20054;-82
2022/10/17 06:11:11;;;;;;;1999.90;999.90;;;17.20;99.90;;;;;;4974600;28;20516;-80
2022/10/17 06:13:38;;;;;;;1999.90;999.90;;;17.20;99.90;;;;;;4973932;28;20034;-82
2022/10/17 06:16:04;;;;;;;1999.90;999.90;;;17.20;99.90;;;;;;4967875;28;20030;-81
2022/10/17 06:18:30;;;;;;;1999.90;999.90;;;17.20;99.90;;;;;;4951346;28;20022;-81
2022/10/17 06:21:05;;;;;;;1999.90;999.90;;;17.20;99.90;;;;;;4968622;28;20030;-82
2022/10/17 06:23:31;;;;;;;1999.90;999.90;;;17.10;99.90;;;;;;4967619;28;20031;-82
2022/10/17 06:25:59;;;;;;;1999.90;999.90;;;17.10;99.90;;;;;;4967839;28;20049;-81
2022/10/17 06:28:24;;;;;;;1999.90;999.90;;;17.10;99.90;;;;;;4967798;28;20542;-81
2022/10/17 06:30:50;;;;;;;1999.90;999.90;;;17.10;99.90;;;;;;4967972;28;20157;-81
2022/10/17 06:33:16;;;;;;;1999.90;999.90;;;17.10;99.90;;;;;;4967879;28;21012;-81
2022/10/17 06:35:42;;;;;;;1999.90;999.90;;;17.10;99.90;;;;;;4963623;28;20512;-81
2022/10/17 06:38:08;;;;;;;1999.90;999.90;;;17.10;99.90;;;;;;4969894;28;20039;-81
2022/10/17 06:40:34;;;;;;;1999.90;999.90;;;17.10;99.90;;;;;;4971759;28;20398;-82
2022/10/17 06:43:00;;;;;;;1999.90;999.90;;;17.10;99.90;;;;;;4970312;28;20030;-81
2022/10/17 06:45:25;;;;;;;1999.90;999.90;;;17.10;99.90;;;;;;4967257;28;20023;-81
2022/10/17 06:47:51;;;;;;;1999.90;999.90;;;17.10;99.90;;;;;;4968807;28;20034;-81
2022/10/17 06:50:17;;;;;;;1999.90;999.90;;;17.10;99.90;;;;;;4971732;28;20085;-81
2022/10/17 06:52:42;;;;;;;1999.90;999.90;;;17.10;99.90;;;;;;4970078;28;20033;-81
2022/10/17 06:55:08;;;;;;;1999.90;999.90;;;17.10;99.90;;;;;;4972505;28;20119;-81
2022/10/17 06:57:34;;;;;;;1999.90;999.90;;;17.10;99.90;;;;;;4970716;28;20082;-81
2022/10/17 07:00:00;;;;;;;1999.90;999.90;;;17.10;99.90;;;;;;4968739;28;20526;-82
2022/10/17 07:02:25;;;;;;;1999.90;999.90;;;17.10;99.90;;;;;;4969354;28;20050;-81
2022/10/17 07:04:51;;;;;;;1999.90;999.90;;;17.10;99.90;;;;;;4981135;28;20034;-82
2022/10/17 07:07:17;;;;;;;1999.90;999.90;;;17.10;99.90;;;;;;4981649;28;20027;-82
2022/10/17 07:09:42;;;;;;;1999.90;999.90;;;17.10;99.90;;;;;;4979021;28;20097;-81
2022/10/17 07:12:10;;;;;;;1999.90;999.90;;;17.10;99.90;;;;;;4980475;28;20056;-81
2022/10/17 07:14:36;;;;;;;1999.90;999.90;;;17.10;99.90;;;;;;4964310;28;20023;-81
2022/10/17 07:17:02;;;;;;;1999.90;999.90;;;17.10;99.90;;;;;;4973644;28;20042;-81
2022/10/17 07:19:28;;;;;;;1999.90;999.90;;;17.10;99.90;;;;;;4984427;28;20080;-82
2022/10/17 07:21:53;;;;;;;1999.90;999.90;;;17.10;99.90;;;;;;4984902;28;20031;-82
2022/10/17 07:24:19;;;;;;;1999.90;999.90;;;17.10;99.90;;;;;;4974156;28;20030;-82
2022/10/17 07:26:45;;;;;;;1999.90;999.90;;;17.10;99.90;;;;;;4973786;28;20066;-81
2022/10/17 07:29:11;;;;;;;1999.90;999.90;;;17.10;99.90;;;;;;4952776;28;20027;-81
2022/10/17 07:31:36;;;;;;;1999.90;999.90;;;17.10;99.90;;;;;;4970980;28;20031;-82
2022/10/17 07:34:02;;;;;;;1999.90;999.90;;;17.10;99.90;;;;;;4974352;28;20029;-83
2022/10/17 07:36:28;;;;;;;1999.90;999.90;;;17.10;99.90;;;;;;4983386;28;20042;-80
2022/10/17 07:38:53;;;;;;;1999.90;999.90;;;17.10;99.90;;;;;;4972728;28;20591;-80
2022/10/17 07:41:19;;;;;;;1999.90;999.90;;;17.10;99.90;;;;;;4970559;28;20042;-80
2022/10/17 07:43:45;;;;;;;1999.90;999.90;;;17.10;99.90;;;;;;4971922;28;20437;-80
2022/10/17 07:46:11;;;;;;;1999.90;999.90;;;17.20;99.90;;;;;;4984533;28;20058;-83
2022/10/17 07:48:38;;;;;;;1999.90;999.90;;;17.20;99.90;;;;;;4971208;28;20453;-80
2022/10/17 07:51:08;;;;;;;1999.90;999.90;;;17.20;99.90;;;;;;4962136;28;20037;-80
2022/10/17 07:53:38;;;;;;;1999.90;999.90;;;17.20;99.90;;;;;;4970440;28;20026;-80
2022/10/17 07:56:08;;;;;;;1999.90;999.90;;;17.20;99.90;;;;;;4969721;28;20034;-84
2022/10/17 07:58:34;;;;;;;1999.90;999.90;;;17.20;99.90;;;;;;4971551;28;20077;-80
2022/10/17 08:01:06;;;;;;;1999.90;999.90;;;17.30;99.90;;;;;;4973859;28;20050;-80
2022/10/17 08:03:32;;;;;;;1999.90;999.90;;;17.30;99.90;;;;;;4973524;28;20085;-80
2022/10/17 08:06:02;;;;;;;1999.90;999.90;;;17.30;99.90;;;;;;4973897;28;20459;-80
2022/10/17 08:08:28;;;;;;;1999.90;999.90;;;17.30;99.90;;;;;;4974773;28;20025;-80
2022/10/17 08:11:05;;;;;;;1999.90;999.90;;;17.30;99.90;;;;;;4981656;28;20500;-83
2022/10/17 08:13:31;;;;;;;1999.90;999.90;;;17.30;99.90;;;;;;4973539;28;20038;-80
2022/10/17 08:16:06;;;;;;;1999.90;999.90;;;17.30;99.90;;;;;;4982767;28;20031;-82
2022/10/17 08:18:32;;;;;;;1999.90;999.90;;;17.40;99.90;;;;;;4973423;28;20085;-82
2022/10/17 08:21:00;;;;;;;1999.90;999.90;;;17.40;99.90;;;;;;4973245;28;20532;-81
2022/10/17 08:23:26;;;;;;;1999.90;999.90;;;17.40;99.90;;;;;;4974064;28;20492;-80
2022/10/17 08:25:51;;;;;;;1999.90;999.90;;;17.40;99.90;;;;;;4981216;28;20019;-81
2022/10/17 08:28:17;;;;;;;1999.90;999.90;;;17.50;99.90;;;;;;4993568;28;20035;-82
2022/10/17 08:30:43;;;;;;;1999.90;999.90;;;17.50;99.90;;;;;;4989636;28;20470;-80
2022/10/17 08:33:08;;;;;;;1999.90;999.90;;;17.50;99.90;;;;;;4972967;28;20540;-80
2022/10/17 08:35:34;;;;;;;1999.90;999.90;;;17.60;99.90;;;;;;4965747;28;20445;-79
2022/10/17 08:38:00;;;;;;;1999.90;999.90;;;17.60;99.90;;;;;;4955348;29;20458;-81
2022/10/17 08:40:28;;;;;;;1999.90;999.90;;;17.70;99.90;;;;;;4971207;28;20034;-79
2022/10/17 08:43:31;;;;;;;1999.90;999.90;;;17.70;99.90;;;;;;4972470;28;20026;-83
2022/10/17 08:46:03;;;;;;;1999.90;999.90;;;17.70;99.90;;;;;;4932256;28;20096;-83
2022/10/17 08:48:35;;;;;;;1999.90;999.90;;;17.70;99.90;;;;;;4972069;28;20027;-82
2022/10/17 08:51:12;;;;;;;1999.90;999.90;;;17.70;99.90;;;;;;4971814;28;20031;-79
2022/10/17 08:54:00;;;;;;;1999.90;999.90;;;17.70;99.90;;;;;;4972197;28;20486;-79
2022/10/17 08:56:41;;;;;;;1999.90;999.90;;;17.70;99.90;;;;;;4966784;28;20034;-83
2022/10/17 08:59:16;;;;;;;1999.90;999.90;;;17.70;99.90;;;;;;4965422;28;20051;-82
2022/10/17 09:02:02;;;;;;;1999.90;999.90;;;17.70;99.90;;;;;;4970959;28;20050;-80
2022/10/17 09:04:42;;;;;;;1999.90;999.90;;;17.70;99.90;;;;;;4964193;28;20059;-86
2022/10/17 09:07:26;;;;;;;1999.90;999.90;;;17.70;99.90;;;;;;4972026;28;20019;-86
2022/10/17 09:10:16;;;;;;;1999.90;999.90;;;17.80;99.90;;;;;;4973287;28;20027;-80
2022/10/17 09:12:50;;;;;;;1999.90;999.90;;;17.80;99.90;;;;;;4973202;28;20027;-81
2022/10/17 09:16:00;;;;;;;1999.90;999.90;;;17.80;99.90;;;;;;4956982;28;20154;-78
2022/10/17 09:18:27;;;;;;;1999.90;999.90;;;17.90;99.90;;;;;;4931599;29;20024;-82
2022/10/17 09:20:59;;;;;;;1999.90;999.90;;;17.90;99.90;;;;;;4972225;28;20038;-82
2022/10/17 09:23:30;;;;;;;1999.90;999.90;;;18.00;99.90;;;;;;4972610;28;20022;-81
2022/10/17 09:25:59;;;;;;;1999.90;999.90;;;18.10;99.90;;;;;;4956280;28;20041;-80
2022/10/17 09:28:34;;;;;;;1999.90;999.90;;;18.30;99.90;;;;;;4991424;28;20505;-77
2022/10/17 09:31:14;;;;;;;1999.90;999.90;;;18.40;99.90;;;;;;4981098;28;20054;-81
2022/10/17 09:33:42;;;;;;;1999.90;999.90;;;18.40;99.90;;;;;;4983388;28;20030;-84
2022/10/17 09:36:37;;;;;;;1999.90;999.90;;;18.50;99.90;;;;;;4972667;28;20027;-84
2022/10/17 09:39:13;;;;;;;1999.90;999.90;;;18.50;99.90;;;;;;4973805;28;20469;-80
2022/10/17 09:41:43;;;;;;;1999.90;999.90;;;18.60;99.90;;;;;;4970325;28;20023;-80
2022/10/17 09:44:34;;;;;;;1999.90;999.90;;;18.70;99.90;;;;;;4973485;28;20031;-80
2022/10/17 09:47:24;;;;;;;1999.90;999.90;;;18.80;99.90;;;;;;4978862;28;20042;-80
2022/10/17 09:49:50;;;;;;;1999.90;999.90;;;19.10;99.90;;;;;;4976846;28;20379;-80
2022/10/17 09:52:21;;;;;;;1999.90;999.90;;;19.00;99.90;;;;;;4983533;28;20048;-80
2022/10/17 09:54:48;;;;;;;1999.90;999.90;;;18.90;99.90;;;;;;4971392;28;20034;-80
2022/10/17 09:57:15;;;;;;;1999.90;999.90;;;18.90;99.90;;;;;;4972113;28;20050;-79
2022/10/17 09:59:54;;;;;;;1999.90;999.90;;;18.90;99.90;;;;;;4976489;28;20034;-79
2022/10/17 10:02:22;;;;;;;1999.90;999.90;;;19.10;99.90;;;;;;4954869;28;20026;-81
2022/10/17 10:04:57;;;;;;;1999.90;999.90;;;19.10;99.90;;;;;;4969629;28;20437;-82
2022/10/17 10:07:25;;;;;;;1999.90;999.90;;;19.10;99.90;;;;;;4958861;28;20473;-80
2022/10/17 10:09:51;;;;;;;1999.90;999.90;;;19.10;99.90;;;;;;4972518;28;20035;-81
2022/10/17 10:12:29;;;;;;;1999.90;999.90;;;19.10;99.90;;;;;;4971947;28;20053;-81
2022/10/17 10:14:56;;;;;;;1999.90;999.90;;;19.10;99.90;;;;;;4971481;28;20031;-79
2022/10/17 10:17:40;;;;;;;1999.90;999.90;;;19.00;99.90;;;;;;4969968;28;20054;-78
2022/10/17 10:20:28;;;;;;;1999.90;999.90;;;19.00;99.90;;;;;;4953964;28;20351;-81
2022/10/17 10:23:14;;;;;;;1999.90;999.90;;;19.10;99.90;;;;;;4972460;28;20069;-79
2022/10/17 10:25:58;;;;;;;1999.90;999.90;;;19.10;99.90;;;;;;4972731;28;20446;-79
2022/10/17 10:28:34;;;;;;;1999.90;999.90;;;19.00;99.90;;;;;;4975059;28;20034;-81
2022/10/17 10:31:07;;;;;;;1999.90;999.90;;;19.00;99.90;;;;;;4999378;28;20057;-81
2022/10/17 10:33:40;;;;;;;1999.90;999.90;;;19.10;99.90;;;;;;5000196;28;20029;-82
2022/10/17 10:36:06;;;;;;;1999.90;999.90;;;19.00;99.90;;;;;;4961469;28;20078;-79
2022/10/17 10:38:33;;;;;;;1999.90;999.90;;;19.00;99.90;;;;;;4972433;28;20035;-79
2022/10/17 10:41:07;;;;;;;1999.90;999.90;;;19.10;99.90;;;;;;4971526;28;20037;-78
2022/10/17 10:43:45;;;;;;;1999.90;999.90;;;19.20;99.90;;;;;;4980087;28;20055;-78
2022/10/17 10:46:29;;;;;;;1999.90;999.90;;;19.30;99.90;;;;;;4973962;28;20452;-82
2022/10/17 10:48:58;;;;;;;1999.90;999.90;;;19.20;99.90;;;;;;4970211;28;20026;-78
2022/10/17 10:51:41;;;;;;;1999.90;999.90;;;19.10;99.90;;;;;;4971449;28;20038;-78
2022/10/17 10:54:33;;;;;;;1999.90;999.90;;;19.10;99.90;;;;;;4965613;28;20034;-78
2022/10/17 10:57:05;;;;;;;1999.90;999.90;;;19.10;99.90;;;;;;4953678;28;20510;-81
2022/10/17 10:59:43;;;;;;;1999.90;999.90;;;19.10;99.90;;;;;;4966158;28;20474;-78
2022/10/17 11:02:26;;;;;;;1999.90;999.90;;;19.00;99.90;;;;;;4966961;28;20031;-79
2022/10/17 11:05:00;;;;;;;1999.90;999.90;;;18.90;99.90;;;;;;4967301;28;20498;-78
2022/10/17 11:07:35;;;;;;;1999.90;999.90;;;18.80;99.90;;;;;;4975161;28;20022;-79
2022/10/17 11:10:09;;;;;;;1999.90;999.90;;;18.90;99.90;;;;;;4958098;28;20809;-78
2022/10/17 11:13:03;;;;;;;1999.90;999.90;;;18.90;99.90;;;;;;4967270;28;20027;-81
2022/10/17 11:15:48;;;;;;;1999.90;999.90;;;19.10;99.90;;;;;;4966227;28;20133;-81
2022/10/17 11:18:38;;;;;;;1999.90;999.90;;;19.30;99.90;;;;;;4965781;28;20593;-78
2022/10/17 11:21:15;;;;;;;1999.90;999.90;;;19.30;99.90;;;;;;4969485;28;20034;-78
2022/10/17 11:23:56;;;;;;;1999.90;999.90;;;19.30;99.90;;;;;;4952565;28;20155;-78
2022/10/17 11:26:30;;;;;;;1999.90;999.90;;;19.20;99.90;;;;;;4951408;29;20498;-81
2022/10/17 11:28:59;;;;;;;1999.90;999.90;;;19.10;99.90;;;;;;4950368;28;20019;-81
2022/10/17 11:31:30;;;;;;;1999.90;999.90;;;19.00;99.90;;;;;;4980248;28;20106;-81
2022/10/17 11:34:18;;;;;;;1999.90;999.90;;;18.90;99.90;;;;;;4976307;28;20027;-81
2022/10/17 11:36:47;;;;;;;1999.90;999.90;;;18.90;99.90;;;;;;4978199;28;20074;-81
2022/10/17 11:39:17;;;;;;;1999.90;999.90;;;18.80;99.90;;;;;;4974256;28;20049;-81
2022/10/17 11:41:46;;;;;;;1999.90;999.90;;;18.80;99.90;;;;;;4988098;28;20102;-82
2022/10/17 11:44:24;;;;;;;1999.90;999.90;;;18.70;99.90;;;;;;4974992;28;20030;-80
2022/10/17 11:47:21;;;;;;;1999.90;999.90;;;18.70;99.90;;;;;;4970184;28;20039;-79
2022/10/17 11:49:52;;;;;;;1999.90;999.90;;;18.80;99.90;;;;;;4973466;28;20089;-81
2022/10/17 11:52:42;;;;;;;1999.90;999.90;;;18.90;99.90;;;;;;4973645;28;20093;-80
2022/10/17 11:55:20;;;;;;;1999.90;999.90;;;19.00;99.90;;;;;;4973890;28;20498;-81
2022/10/17 11:57:53;;;;;;;1999.90;999.90;;;18.90;99.90;;;;;;4974899;28;20023;-80
2022/10/17 12:00:56;;;;;;;1999.90;999.90;;;18.90;99.90;;;;;;4957574;28;20035;-79
2022/10/17 12:03:37;;;;;;;1999.90;999.90;;;18.70;99.90;;;;;;4964289;28;20038;-80
2022/10/17 12:06:15;;;;;;;1999.90;999.90;;;18.60;99.90;;;;;;4964257;28;20035;-79
2022/10/17 12:09:07;;;;;;;1999.90;999.90;;;18.60;99.90;;;;;;4974783;28;20023;-80
2022/10/17 12:11:52;;;;;;;1999.90;999.90;;;18.60;99.90;;;;;;4944481;28;20486;-78
2022/10/17 12:14:42;;;;;;;1999.90;999.90;;;18.70;99.90;;;;;;4975187;28;20054;-81
2022/10/17 12:17:26;;;;;;;1999.90;999.90;;;18.60;99.90;;;;;;4956866;28;20050;-79
2022/10/17 12:19:52;;;;;;;1999.90;999.90;;;18.60;99.90;;;;;;4978618;28;20077;-80